sensor_id;sensor_type;location;lat;lon;timestamp;P1;durP1;ratioP1;P2;durP2;ratioP2
47431;SDS011;33183;52.290;6.144;2022-09-03T00:01:34;0.60;;;0.50;;
47431;SDS011;33183;52.290;6.144;2022-09-03T00:04:09;1.08;;;0.95;;
47431;SDS011;33183;52.290;6.144;2022-09-03T00:06:42;0.80;;;0.68;;
47431;SDS011;33183;52.290;6.144;2022-09-03T00:09:13;0.57;;;0.50;;
47431;SDS011;33183;52.290;6.144;2022-09-03T00:11:53;0.95;;;0.60;;
47431;SDS011;33183;52.290;6.144;2022-09-03T00:14:34;0.70;;;0.50;;
47431;SDS011;33183;52.290;6.144;2022-09-03T00:17:10;0.40;;;0.35;;
47431;SDS011;33183;52.290;6.144;2022-09-03T00:19:40;0.98;;;0.52;;
47431;SDS011;33183;52.290;6.144;2022-09-03T00:22:17;1.23;;;0.63;;
47431;SDS011;33183;52.290;6.144;2022-09-03T00:24:43;0.65;;;0.50;;
47431;SDS011;33183;52.290;6.144;2022-09-03T00:27:20;0.70;;;0.50;;
47431;SDS011;33183;52.290;6.144;2022-09-03T00:30:29;0.68;;;0.50;;
47431;SDS011;33183;52.290;6.144;2022-09-03T00:32:50;1.15;;;0.52;;
47431;SDS011;33183;52.290;6.144;2022-09-03T00:35:21;0.65;;;0.52;;
47431;SDS011;33183;52.290;6.144;2022-09-03T00:37:52;0.95;;;0.50;;
47431;SDS011;33183;52.290;6.144;2022-09-03T00:44:23;0.55;;;0.47;;
47431;SDS011;33183;52.290;6.144;2022-09-03T00:46:25;0.55;;;0.55;;
47431;SDS011;33183;52.290;6.144;2022-09-03T01:00:10;0.60;;;0.50;;
47431;SDS011;33183;52.290;6.144;2022-09-03T01:02:45;1.17;;;0.82;;
47431;SDS011;33183;52.290;6.144;2022-09-03T01:07:48;0.63;;;0.40;;
47431;SDS011;33183;52.290;6.144;2022-09-03T01:10:40;0.45;;;0.40;;
47431;SDS011;33183;52.290;6.144;2022-09-03T01:13:14;0.80;;;0.45;;
47431;SDS011;33183;52.290;6.144;2022-09-03T01:15:44;0.60;;;0.47;;
47431;SDS011;33183;52.290;6.144;2022-09-03T01:35:16;0.98;;;0.50;;
47431;SDS011;33183;52.290;6.144;2022-09-03T01:46:41;0.68;;;0.65;;
47431;SDS011;33183;52.290;6.144;2022-09-03T01:51:35;0.47;;;0.47;;
47431;SDS011;33183;52.290;6.144;2022-09-03T01:54:17;0.60;;;0.50;;
47431;SDS011;33183;52.290;6.144;2022-09-03T01:59:46;0.70;;;0.50;;
47431;SDS011;33183;52.290;6.144;2022-09-03T02:02:29;0.40;;;0.38;;
47431;SDS011;33183;52.290;6.144;2022-09-03T02:05:36;0.75;;;0.50;;
47431;SDS011;33183;52.290;6.144;2022-09-03T02:07:50;1.13;;;0.65;;
47431;SDS011;33183;52.290;6.144;2022-09-03T02:10:24;0.75;;;0.50;;
47431;SDS011;33183;52.290;6.144;2022-09-03T02:13:00;0.40;;;0.40;;
47431;SDS011;33183;52.290;6.144;2022-09-03T02:15:29;1.48;;;0.40;;
47431;SDS011;33183;52.290;6.144;2022-09-03T02:17:56;0.40;;;0.30;;
47431;SDS011;33183;52.290;6.144;2022-09-03T02:20:25;0.60;;;0.50;;
47431;SDS011;33183;52.290;6.144;2022-09-03T02:22:51;0.77;;;0.52;;
47431;SDS011;33183;52.290;6.144;2022-09-03T02:25:18;0.80;;;0.50;;
47431;SDS011;33183;52.290;6.144;2022-09-03T02:27:43;0.93;;;0.57;;
47431;SDS011;33183;52.290;6.144;2022-09-03T02:30:09;0.57;;;0.45;;
47431;SDS011;33183;52.290;6.144;2022-09-03T02:32:35;0.50;;;0.50;;
47431;SDS011;33183;52.290;6.144;2022-09-03T02:35:01;0.60;;;0.50;;
47431;SDS011;33183;52.290;6.144;2022-09-03T02:37:26;0.77;;;0.40;;
47431;SDS011;33183;52.290;6.144;2022-09-03T02:39:51;0.60;;;0.50;;
47431;SDS011;33183;52.290;6.144;2022-09-03T02:42:17;1.52;;;0.50;;
47431;SDS011;33183;52.290;6.144;2022-09-03T02:44:51;0.85;;;0.57;;
47431;SDS011;33183;52.290;6.144;2022-09-03T02:47:18;0.47;;;0.45;;
47431;SDS011;33183;52.290;6.144;2022-09-03T02:49:46;0.75;;;0.50;;
47431;SDS011;33183;52.290;6.144;2022-09-03T02:52:12;0.60;;;0.55;;
47431;SDS011;33183;52.290;6.144;2022-09-03T02:54:38;1.20;;;0.70;;
47431;SDS011;33183;52.290;6.144;2022-09-03T02:57:04;0.43;;;0.40;;
47431;SDS011;33183;52.290;6.144;2022-09-03T02:59:31;0.50;;;0.45;;
47431;SDS011;33183;52.290;6.144;2022-09-03T03:01:56;0.90;;;0.40;;
47431;SDS011;33183;52.290;6.144;2022-09-03T03:04:21;0.45;;;0.30;;
47431;SDS011;33183;52.290;6.144;2022-09-03T03:06:47;1.27;;;0.50;;
47431;SDS011;33183;52.290;6.144;2022-09-03T03:09:14;0.55;;;0.52;;
47431;SDS011;33183;52.290;6.144;2022-09-03T03:11:40;0.40;;;0.40;;
47431;SDS011;33183;52.290;6.144;2022-09-03T03:14:05;0.43;;;0.40;;
47431;SDS011;33183;52.290;6.144;2022-09-03T03:16:31;0.55;;;0.40;;
47431;SDS011;33183;52.290;6.144;2022-09-03T03:18:56;0.82;;;0.50;;
47431;SDS011;33183;52.290;6.144;2022-09-03T03:21:21;0.50;;;0.40;;
47431;SDS011;33183;52.290;6.144;2022-09-03T03:23:47;1.02;;;0.60;;
47431;SDS011;33183;52.290;6.144;2022-09-03T03:26:13;0.63;;;0.50;;
47431;SDS011;33183;52.290;6.144;2022-09-03T03:28:42;0.60;;;0.50;;
47431;SDS011;33183;52.290;6.144;2022-09-03T03:31:08;1.20;;;0.40;;
47431;SDS011;33183;52.290;6.144;2022-09-03T03:33:35;0.40;;;0.40;;
47431;SDS011;33183;52.290;6.144;2022-09-03T03:36:08;0.50;;;0.50;;
47431;SDS011;33183;52.290;6.144;2022-09-03T03:38:36;0.57;;;0.40;;
47431;SDS011;33183;52.290;6.144;2022-09-03T03:41:15;0.50;;;0.50;;
47431;SDS011;33183;52.290;6.144;2022-09-03T03:43:42;0.50;;;0.50;;
47431;SDS011;33183;52.290;6.144;2022-09-03T03:46:08;0.57;;;0.43;;
47431;SDS011;33183;52.290;6.144;2022-09-03T03:48:34;0.60;;;0.50;;
47431;SDS011;33183;52.290;6.144;2022-09-03T03:51:00;0.68;;;0.50;;
47431;SDS011;33183;52.290;6.144;2022-09-03T03:53:32;0.45;;;0.45;;
47431;SDS011;33183;52.290;6.144;2022-09-03T03:55:59;0.40;;;0.40;;
47431;SDS011;33183;52.290;6.144;2022-09-03T03:58:26;0.70;;;0.50;;
47431;SDS011;33183;52.290;6.144;2022-09-03T04:00:52;0.50;;;0.40;;
47431;SDS011;33183;52.290;6.144;2022-09-03T04:03:18;0.75;;;0.30;;
47431;SDS011;33183;52.290;6.144;2022-09-03T04:05:54;0.43;;;0.40;;
47431;SDS011;33183;52.290;6.144;2022-09-03T04:08:20;0.55;;;0.50;;
47431;SDS011;33183;52.290;6.144;2022-09-03T04:10:45;0.85;;;0.40;;
47431;SDS011;33183;52.290;6.144;2022-09-03T04:13:11;0.50;;;0.38;;
47431;SDS011;33183;52.290;6.144;2022-09-03T04:15:36;0.50;;;0.40;;
47431;SDS011;33183;52.290;6.144;2022-09-03T04:18:01;0.47;;;0.38;;
47431;SDS011;33183;52.290;6.144;2022-09-03T04:20:26;0.65;;;0.45;;
47431;SDS011;33183;52.290;6.144;2022-09-03T04:22:52;0.40;;;0.30;;
47431;SDS011;33183;52.290;6.144;2022-09-03T04:25:17;0.80;;;0.57;;
47431;SDS011;33183;52.290;6.144;2022-09-03T04:27:42;0.65;;;0.50;;
47431;SDS011;33183;52.290;6.144;2022-09-03T04:30:08;1.02;;;0.47;;
47431;SDS011;33183;52.290;6.144;2022-09-03T04:32:33;0.68;;;0.47;;
47431;SDS011;33183;52.290;6.144;2022-09-03T04:35:17;1.10;;;0.57;;
47431;SDS011;33183;52.290;6.144;2022-09-03T04:37:43;0.40;;;0.40;;
47431;SDS011;33183;52.290;6.144;2022-09-03T04:40:08;0.90;;;0.60;;
47431;SDS011;33183;52.290;6.144;2022-09-03T04:42:34;0.70;;;0.50;;
47431;SDS011;33183;52.290;6.144;2022-09-03T04:44:59;0.57;;;0.45;;
47431;SDS011;33183;52.290;6.144;2022-09-03T04:47:25;0.98;;;0.60;;
47431;SDS011;33183;52.290;6.144;2022-09-03T04:49:52;0.50;;;0.43;;
47431;SDS011;33183;52.290;6.144;2022-09-03T04:52:19;0.40;;;0.40;;
47431;SDS011;33183;52.290;6.144;2022-09-03T04:54:44;0.70;;;0.43;;
47431;SDS011;33183;52.290;6.144;2022-09-03T04:57:09;0.55;;;0.55;;
47431;SDS011;33183;52.290;6.144;2022-09-03T04:59:35;0.60;;;0.40;;
47431;SDS011;33183;52.290;6.144;2022-09-03T05:02:00;0.55;;;0.45;;
47431;SDS011;33183;52.290;6.144;2022-09-03T05:04:25;0.43;;;0.40;;
47431;SDS011;33183;52.290;6.144;2022-09-03T05:06:50;0.63;;;0.30;;
47431;SDS011;33183;52.290;6.144;2022-09-03T05:09:16;1.00;;;0.40;;
47431;SDS011;33183;52.290;6.144;2022-09-03T05:11:41;0.50;;;0.40;;
47431;SDS011;33183;52.290;6.144;2022-09-03T05:14:06;0.47;;;0.47;;
47431;SDS011;33183;52.290;6.144;2022-09-03T05:16:35;0.40;;;0.40;;
47431;SDS011;33183;52.290;6.144;2022-09-03T05:19:00;0.50;;;0.50;;
47431;SDS011;33183;52.290;6.144;2022-09-03T05:21:29;0.65;;;0.40;;
47431;SDS011;33183;52.290;6.144;2022-09-03T05:23:55;0.35;;;0.30;;
47431;SDS011;33183;52.290;6.144;2022-09-03T05:26:22;0.32;;;0.32;;
47431;SDS011;33183;52.290;6.144;2022-09-03T05:28:51;0.45;;;0.40;;
47431;SDS011;33183;52.290;6.144;2022-09-03T05:31:18;0.77;;;0.57;;
47431;SDS011;33183;52.290;6.144;2022-09-03T05:33:44;0.50;;;0.40;;
47431;SDS011;33183;52.290;6.144;2022-09-03T05:36:18;0.38;;;0.30;;
47431;SDS011;33183;52.290;6.144;2022-09-03T05:38:46;0.40;;;0.40;;
47431;SDS011;33183;52.290;6.144;2022-09-03T05:41:13;0.60;;;0.40;;
47431;SDS011;33183;52.290;6.144;2022-09-03T05:43:40;0.40;;;0.35;;
47431;SDS011;33183;52.290;6.144;2022-09-03T05:46:06;0.40;;;0.32;;
47431;SDS011;33183;52.290;6.144;2022-09-03T05:48:33;0.43;;;0.30;;
47431;SDS011;33183;52.290;6.144;2022-09-03T05:51:10;0.57;;;0.38;;
47431;SDS011;33183;52.290;6.144;2022-09-03T05:53:40;0.73;;;0.50;;
47431;SDS011;33183;52.290;6.144;2022-09-03T05:56:08;0.40;;;0.30;;
47431;SDS011;33183;52.290;6.144;2022-09-03T05:58:38;0.40;;;0.40;;
47431;SDS011;33183;52.290;6.144;2022-09-03T06:03:59;0.32;;;0.30;;
47431;SDS011;33183;52.290;6.144;2022-09-03T06:06:25;0.63;;;0.32;;
47431;SDS011;33183;52.290;6.144;2022-09-03T06:08:52;0.40;;;0.40;;
47431;SDS011;33183;52.290;6.144;2022-09-03T06:11:22;0.50;;;0.40;;
47431;SDS011;33183;52.290;6.144;2022-09-03T06:13:52;0.57;;;0.40;;
47431;SDS011;33183;52.290;6.144;2022-09-03T06:16:18;0.68;;;0.50;;
47431;SDS011;33183;52.290;6.144;2022-09-03T06:18:43;0.47;;;0.40;;
47431;SDS011;33183;52.290;6.144;2022-09-03T06:21:08;1.42;;;0.40;;
47431;SDS011;33183;52.290;6.144;2022-09-03T06:23:34;0.63;;;0.50;;
47431;SDS011;33183;52.290;6.144;2022-09-03T06:26:00;0.60;;;0.40;;
47431;SDS011;33183;52.290;6.144;2022-09-03T06:28:26;1.30;;;0.40;;
47431;SDS011;33183;52.290;6.144;2022-09-03T06:30:52;0.40;;;0.40;;
47431;SDS011;33183;52.290;6.144;2022-09-03T06:33:18;0.40;;;0.40;;
47431;SDS011;33183;52.290;6.144;2022-09-03T06:35:43;0.35;;;0.30;;
47431;SDS011;33183;52.290;6.144;2022-09-03T06:38:10;0.30;;;0.30;;
47431;SDS011;33183;52.290;6.144;2022-09-03T06:40:36;0.52;;;0.47;;
47431;SDS011;33183;52.290;6.144;2022-09-03T06:43:01;0.38;;;0.30;;
47431;SDS011;33183;52.290;6.144;2022-09-03T06:45:27;0.43;;;0.40;;
47431;SDS011;33183;52.290;6.144;2022-09-03T06:47:54;0.68;;;0.50;;
47431;SDS011;33183;52.290;6.144;2022-09-03T06:50:19;0.30;;;0.30;;
47431;SDS011;33183;52.290;6.144;2022-09-03T06:52:49;0.65;;;0.35;;
47431;SDS011;33183;52.290;6.144;2022-09-03T06:55:19;0.77;;;0.40;;
47431;SDS011;33183;52.290;6.144;2022-09-03T06:57:45;1.27;;;0.40;;
47431;SDS011;33183;52.290;6.144;2022-09-03T07:00:10;0.40;;;0.40;;
47431;SDS011;33183;52.290;6.144;2022-09-03T07:02:36;0.80;;;0.40;;
47431;SDS011;33183;52.290;6.144;2022-09-03T07:05:01;0.75;;;0.40;;
47431;SDS011;33183;52.290;6.144;2022-09-03T07:07:27;0.43;;;0.32;;
47431;SDS011;33183;52.290;6.144;2022-09-03T07:09:52;0.73;;;0.47;;
47431;SDS011;33183;52.290;6.144;2022-09-03T07:12:17;0.52;;;0.40;;
47431;SDS011;33183;52.290;6.144;2022-09-03T07:14:43;0.50;;;0.50;;
47431;SDS011;33183;52.290;6.144;2022-09-03T07:17:08;0.30;;;0.30;;
47431;SDS011;33183;52.290;6.144;2022-09-03T07:19:33;0.73;;;0.40;;
47431;SDS011;33183;52.290;6.144;2022-09-03T07:21:59;0.40;;;0.30;;
47431;SDS011;33183;52.290;6.144;2022-09-03T07:24:25;0.45;;;0.40;;
47431;SDS011;33183;52.290;6.144;2022-09-03T07:26:51;0.47;;;0.35;;
47431;SDS011;33183;52.290;6.144;2022-09-03T07:29:17;0.40;;;0.30;;
47431;SDS011;33183;52.290;6.144;2022-09-03T07:31:44;0.43;;;0.40;;
47431;SDS011;33183;52.290;6.144;2022-09-03T07:34:10;0.60;;;0.47;;
47431;SDS011;33183;52.290;6.144;2022-09-03T07:36:40;1.30;;;0.47;;
47431;SDS011;33183;52.290;6.144;2022-09-03T07:39:11;0.50;;;0.43;;
47431;SDS011;33183;52.290;6.144;2022-09-03T07:41:37;1.15;;;0.50;;
47431;SDS011;33183;52.290;6.144;2022-09-03T07:44:03;0.90;;;0.40;;
47431;SDS011;33183;52.290;6.144;2022-09-03T07:46:32;0.57;;;0.30;;
47431;SDS011;33183;52.290;6.144;2022-09-03T07:48:59;1.15;;;0.57;;
47431;SDS011;33183;52.290;6.144;2022-09-03T07:51:30;0.65;;;0.38;;
47431;SDS011;33183;52.290;6.144;2022-09-03T07:53:57;4.18;;;0.50;;
47431;SDS011;33183;52.290;6.144;2022-09-03T07:56:24;0.95;;;0.63;;
47431;SDS011;33183;52.290;6.144;2022-09-03T07:58:50;0.47;;;0.32;;
47431;SDS011;33183;52.290;6.144;2022-09-03T08:01:17;0.55;;;0.30;;
47431;SDS011;33183;52.290;6.144;2022-09-03T08:03:44;0.73;;;0.40;;
47431;SDS011;33183;52.290;6.144;2022-09-03T08:06:11;1.00;;;0.45;;
47431;SDS011;33183;52.290;6.144;2022-09-03T08:08:37;1.67;;;0.38;;
47431;SDS011;33183;52.290;6.144;2022-09-03T08:11:06;0.40;;;0.40;;
47431;SDS011;33183;52.290;6.144;2022-09-03T08:13:35;0.85;;;0.32;;
47431;SDS011;33183;52.290;6.144;2022-09-03T08:16:01;0.30;;;0.30;;
47431;SDS011;33183;52.290;6.144;2022-09-03T08:18:26;0.50;;;0.40;;
47431;SDS011;33183;52.290;6.144;2022-09-03T08:20:57;0.30;;;0.30;;
47431;SDS011;33183;52.290;6.144;2022-09-03T08:23:23;0.82;;;0.35;;
47431;SDS011;33183;52.290;6.144;2022-09-03T08:25:48;0.55;;;0.50;;
47431;SDS011;33183;52.290;6.144;2022-09-03T08:28:13;0.60;;;0.50;;
47431;SDS011;33183;52.290;6.144;2022-09-03T08:30:39;0.95;;;0.52;;
47431;SDS011;33183;52.290;6.144;2022-09-03T08:33:04;0.40;;;0.40;;
47431;SDS011;33183;52.290;6.144;2022-09-03T08:35:30;0.40;;;0.30;;
47431;SDS011;33183;52.290;6.144;2022-09-03T08:37:58;1.83;;;0.50;;
47431;SDS011;33183;52.290;6.144;2022-09-03T08:40:29;0.98;;;0.30;;
47431;SDS011;33183;52.290;6.144;2022-09-03T08:45:33;1.55;;;0.88;;
47431;SDS011;33183;52.290;6.144;2022-09-03T08:48:02;0.87;;;0.40;;
47431;SDS011;33183;52.290;6.144;2022-09-03T08:50:33;0.30;;;0.30;;
47431;SDS011;33183;52.290;6.144;2022-09-03T08:53:05;0.63;;;0.40;;
47431;SDS011;33183;52.290;6.144;2022-09-03T08:58:35;0.73;;;0.65;;
47431;SDS011;33183;52.290;6.144;2022-09-03T09:01:09;0.43;;;0.35;;
47431;SDS011;33183;52.290;6.144;2022-09-03T09:16:26;0.50;;;0.40;;
47431;SDS011;33183;52.290;6.144;2022-09-03T09:21:29;0.40;;;0.40;;
47431;SDS011;33183;52.290;6.144;2022-09-03T09:24:00;0.93;;;0.38;;
47431;SDS011;33183;52.290;6.144;2022-09-03T09:26:27;0.90;;;0.50;;
47431;SDS011;33183;52.290;6.144;2022-09-03T09:29:00;1.00;;;0.40;;
47431;SDS011;33183;52.290;6.144;2022-09-03T09:31:29;2.22;;;0.50;;
47431;SDS011;33183;52.290;6.144;2022-09-03T09:33:56;1.33;;;0.50;;
47431;SDS011;33183;52.290;6.144;2022-09-03T09:36:27;0.70;;;0.40;;
47431;SDS011;33183;52.290;6.144;2022-09-03T09:38:52;0.88;;;0.47;;
47431;SDS011;33183;52.290;6.144;2022-09-03T09:41:18;0.93;;;0.38;;
47431;SDS011;33183;52.290;6.144;2022-09-03T09:43:45;0.40;;;0.40;;
47431;SDS011;33183;52.290;6.144;2022-09-03T09:46:19;0.57;;;0.40;;
47431;SDS011;33183;52.290;6.144;2022-09-03T09:48:52;0.40;;;0.30;;
47431;SDS011;33183;52.290;6.144;2022-09-03T09:51:20;0.70;;;0.50;;
47431;SDS011;33183;52.290;6.144;2022-09-03T09:53:47;1.17;;;0.50;;
47431;SDS011;33183;52.290;6.144;2022-09-03T09:56:24;0.40;;;0.40;;
47431;SDS011;33183;52.290;6.144;2022-09-03T09:58:49;0.47;;;0.30;;
47431;SDS011;33183;52.290;6.144;2022-09-03T10:01:25;1.30;;;0.40;;
47431;SDS011;33183;52.290;6.144;2022-09-03T10:03:55;0.90;;;0.55;;
47431;SDS011;33183;52.290;6.144;2022-09-03T10:06:25;0.60;;;0.40;;
47431;SDS011;33183;52.290;6.144;2022-09-03T10:09:11;0.50;;;0.30;;
47431;SDS011;33183;52.290;6.144;2022-09-03T10:11:42;0.50;;;0.40;;
47431;SDS011;33183;52.290;6.144;2022-09-03T10:14:18;0.60;;;0.40;;
47431;SDS011;33183;52.290;6.144;2022-09-03T10:16:47;1.25;;;0.40;;
47431;SDS011;33183;52.290;6.144;2022-09-03T10:19:17;0.32;;;0.30;;
47431;SDS011;33183;52.290;6.144;2022-09-03T10:21:46;0.75;;;0.52;;
47431;SDS011;33183;52.290;6.144;2022-09-03T10:27:22;1.17;;;0.60;;
47431;SDS011;33183;52.290;6.144;2022-09-03T10:29:48;0.45;;;0.30;;
47431;SDS011;33183;52.290;6.144;2022-09-03T10:35:15;0.65;;;0.40;;
47431;SDS011;33183;52.290;6.144;2022-09-03T10:45:52;0.35;;;0.32;;
47431;SDS011;33183;52.290;6.144;2022-09-03T10:54:12;0.30;;;0.20;;
47431;SDS011;33183;52.290;6.144;2022-09-03T10:56:49;0.75;;;0.40;;
47431;SDS011;33183;52.290;6.144;2022-09-03T11:05:10;0.50;;;0.30;;
47431;SDS011;33183;52.290;6.144;2022-09-03T11:10:39;0.63;;;0.40;;
47431;SDS011;33183;52.290;6.144;2022-09-03T11:13:18;0.30;;;0.30;;
47431;SDS011;33183;52.290;6.144;2022-09-03T11:16:21;0.60;;;0.40;;
47431;SDS011;33183;52.290;6.144;2022-09-03T11:18:46;0.32;;;0.30;;
47431;SDS011;33183;52.290;6.144;2022-09-03T11:21:14;0.93;;;0.40;;
47431;SDS011;33183;52.290;6.144;2022-09-03T11:26:09;0.40;;;0.38;;
47431;SDS011;33183;52.290;6.144;2022-09-03T11:34:31;0.50;;;0.40;;
47431;SDS011;33183;52.290;6.144;2022-09-03T11:39:57;0.50;;;0.38;;
47431;SDS011;33183;52.290;6.144;2022-09-03T11:42:32;0.30;;;0.30;;
47431;SDS011;33183;52.290;6.144;2022-09-03T11:47:42;0.30;;;0.22;;
47431;SDS011;33183;52.290;6.144;2022-09-03T11:50:15;0.55;;;0.40;;
47431;SDS011;33183;52.290;6.144;2022-09-03T11:52:49;0.60;;;0.50;;
47431;SDS011;33183;52.290;6.144;2022-09-03T11:57:49;0.55;;;0.30;;
47431;SDS011;33183;52.290;6.144;2022-09-03T12:00:15;0.60;;;0.40;;
47431;SDS011;33183;52.290;6.144;2022-09-03T12:02:49;1.15;;;0.40;;
47431;SDS011;33183;52.290;6.144;2022-09-03T12:13:32;0.50;;;0.40;;
47431;SDS011;33183;52.290;6.144;2022-09-03T12:18:51;1.08;;;0.70;;
47431;SDS011;33183;52.290;6.144;2022-09-03T12:21:19;1.20;;;0.90;;
47431;SDS011;33183;52.290;6.144;2022-09-03T12:23:49;0.60;;;0.60;;
47431;SDS011;33183;52.290;6.144;2022-09-03T12:26:17;0.88;;;0.63;;
47431;SDS011;33183;52.290;6.144;2022-09-03T12:28:46;0.77;;;0.43;;
47431;SDS011;33183;52.290;6.144;2022-09-03T12:38:41;0.80;;;0.50;;
47431;SDS011;33183;52.290;6.144;2022-09-03T12:41:18;1.05;;;0.40;;
47431;SDS011;33183;52.290;6.144;2022-09-03T12:43:52;0.68;;;0.50;;
47431;SDS011;33183;52.290;6.144;2022-09-03T12:46:22;0.70;;;0.50;;
47431;SDS011;33183;52.290;6.144;2022-09-03T12:48:53;0.85;;;0.40;;
47431;SDS011;33183;52.290;6.144;2022-09-03T12:51:18;0.88;;;0.52;;
47431;SDS011;33183;52.290;6.144;2022-09-03T12:53:45;0.77;;;0.60;;
47431;SDS011;33183;52.290;6.144;2022-09-03T12:56:10;0.85;;;0.50;;
47431;SDS011;33183;52.290;6.144;2022-09-03T12:58:37;0.50;;;0.47;;
47431;SDS011;33183;52.290;6.144;2022-09-03T13:01:11;0.65;;;0.40;;
47431;SDS011;33183;52.290;6.144;2022-09-03T13:03:46;0.85;;;0.60;;
47431;SDS011;33183;52.290;6.144;2022-09-03T13:06:20;1.13;;;0.60;;
47431;SDS011;33183;52.290;6.144;2022-09-03T13:08:49;0.90;;;0.50;;
47431;SDS011;33183;52.290;6.144;2022-09-03T13:11:18;1.58;;;0.60;;
47431;SDS011;33183;52.290;6.144;2022-09-03T13:21:47;0.60;;;0.40;;
47431;SDS011;33183;52.290;6.144;2022-09-03T13:27:08;1.08;;;0.40;;
47431;SDS011;33183;52.290;6.144;2022-09-03T13:32:21;0.40;;;0.40;;
47431;SDS011;33183;52.290;6.144;2022-09-03T13:34:53;0.55;;;0.47;;
47431;SDS011;33183;52.290;6.144;2022-09-03T13:37:26;1.45;;;0.40;;
47431;SDS011;33183;52.290;6.144;2022-09-03T13:39:58;0.70;;;0.40;;
47431;SDS011;33183;52.290;6.144;2022-09-03T13:42:41;0.95;;;0.50;;
47431;SDS011;33183;52.290;6.144;2022-09-03T13:45:15;0.40;;;0.32;;
47431;SDS011;33183;52.290;6.144;2022-09-03T13:47:51;0.80;;;0.40;;
47431;SDS011;33183;52.290;6.144;2022-09-03T13:50:44;0.95;;;0.40;;
47431;SDS011;33183;52.290;6.144;2022-09-03T13:53:17;0.82;;;0.40;;
47431;SDS011;33183;52.290;6.144;2022-09-03T13:55:48;0.45;;;0.45;;
47431;SDS011;33183;52.290;6.144;2022-09-03T13:58:33;0.90;;;0.50;;
47431;SDS011;33183;52.290;6.144;2022-09-03T14:01:05;1.20;;;0.40;;
47431;SDS011;33183;52.290;6.144;2022-09-03T14:03:47;0.85;;;0.57;;
47431;SDS011;33183;52.290;6.144;2022-09-03T14:17:29;0.80;;;0.40;;
47431;SDS011;33183;52.290;6.144;2022-09-03T14:20:03;0.55;;;0.40;;
47431;SDS011;33183;52.290;6.144;2022-09-03T14:25:08;0.77;;;0.50;;
47431;SDS011;33183;52.290;6.144;2022-09-03T14:27:35;0.90;;;0.30;;
47431;SDS011;33183;52.290;6.144;2022-09-03T14:30:03;0.73;;;0.50;;
47431;SDS011;33183;52.290;6.144;2022-09-03T14:46:07;0.45;;;0.30;;
47431;SDS011;33183;52.290;6.144;2022-09-03T14:51:37;0.50;;;0.40;;
47431;SDS011;33183;52.290;6.144;2022-09-03T15:00:21;0.40;;;0.30;;
47431;SDS011;33183;52.290;6.144;2022-09-03T15:06:13;0.40;;;0.30;;
47431;SDS011;33183;52.290;6.144;2022-09-03T15:11:56;0.65;;;0.50;;
47431;SDS011;33183;52.290;6.144;2022-09-03T15:24:59;1.05;;;0.50;;
47431;SDS011;33183;52.290;6.144;2022-09-03T15:27:38;0.50;;;0.47;;
47431;SDS011;33183;52.290;6.144;2022-09-03T15:30:11;0.93;;;0.43;;
47431;SDS011;33183;52.290;6.144;2022-09-03T15:35:15;0.73;;;0.50;;
47431;SDS011;33183;52.290;6.144;2022-09-03T15:37:53;0.60;;;0.50;;
47431;SDS011;33183;52.290;6.144;2022-09-03T15:40:35;0.95;;;0.80;;
47431;SDS011;33183;52.290;6.144;2022-09-03T15:43:07;0.82;;;0.55;;
47431;SDS011;33183;52.290;6.144;2022-09-03T15:48:16;0.60;;;0.40;;
47431;SDS011;33183;52.290;6.144;2022-09-03T15:56:21;0.63;;;0.50;;
47431;SDS011;33183;52.290;6.144;2022-09-03T16:01:42;0.82;;;0.60;;
47431;SDS011;33183;52.290;6.144;2022-09-03T16:12:20;0.57;;;0.50;;
47431;SDS011;33183;52.290;6.144;2022-09-03T16:14:59;0.93;;;0.50;;
47431;SDS011;33183;52.290;6.144;2022-09-03T16:17:32;1.40;;;0.73;;
47431;SDS011;33183;52.290;6.144;2022-09-03T16:23:06;1.27;;;0.80;;
47431;SDS011;33183;52.290;6.144;2022-09-03T16:28:13;0.77;;;0.60;;
47431;SDS011;33183;52.290;6.144;2022-09-03T16:39:09;1.85;;;0.82;;
47431;SDS011;33183;52.290;6.144;2022-09-03T16:44:13;0.73;;;0.63;;
47431;SDS011;33183;52.290;6.144;2022-09-03T16:47:19;1.10;;;0.70;;
47431;SDS011;33183;52.290;6.144;2022-09-03T16:50:12;1.63;;;0.80;;
47431;SDS011;33183;52.290;6.144;2022-09-03T16:52:48;0.88;;;0.60;;
47431;SDS011;33183;52.290;6.144;2022-09-03T16:55:50;1.10;;;0.60;;
47431;SDS011;33183;52.290;6.144;2022-09-03T17:08:52;1.13;;;0.70;;
47431;SDS011;33183;52.290;6.144;2022-09-03T17:14:26;0.65;;;0.50;;
47431;SDS011;33183;52.290;6.144;2022-09-03T17:25:26;1.30;;;0.57;;
47431;SDS011;33183;52.290;6.144;2022-09-03T17:28:14;1.15;;;0.60;;
47431;SDS011;33183;52.290;6.144;2022-09-03T17:36:25;1.60;;;0.60;;
47431;SDS011;33183;52.290;6.144;2022-09-03T17:47:11;0.68;;;0.50;;
47431;SDS011;33183;52.290;6.144;2022-09-03T17:49:54;1.20;;;0.70;;
47431;SDS011;33183;52.290;6.144;2022-09-03T17:55:00;1.73;;;0.80;;
47431;SDS011;33183;52.290;6.144;2022-09-03T17:57:56;0.68;;;0.60;;
47431;SDS011;33183;52.290;6.144;2022-09-03T18:01:10;0.47;;;0.47;;
47431;SDS011;33183;52.290;6.144;2022-09-03T18:03:31;1.40;;;0.70;;
47431;SDS011;33183;52.290;6.144;2022-09-03T18:06:05;1.00;;;0.70;;
47431;SDS011;33183;52.290;6.144;2022-09-03T18:08:45;1.10;;;0.63;;
47431;SDS011;33183;52.290;6.144;2022-09-03T18:14:16;1.35;;;0.70;;
47431;SDS011;33183;52.290;6.144;2022-09-03T18:16:51;1.10;;;0.77;;
47431;SDS011;33183;52.290;6.144;2022-09-03T18:19:37;1.95;;;0.80;;
47431;SDS011;33183;52.290;6.144;2022-09-03T18:22:36;1.02;;;0.73;;
47431;SDS011;33183;52.290;6.144;2022-09-03T18:25:21;1.17;;;0.70;;
47431;SDS011;33183;52.290;6.144;2022-09-03T18:28:08;1.23;;;0.90;;
47431;SDS011;33183;52.290;6.144;2022-09-03T18:30:53;1.45;;;1.05;;
47431;SDS011;33183;52.290;6.144;2022-09-03T18:33:38;0.75;;;0.75;;
47431;SDS011;33183;52.290;6.144;2022-09-03T18:36:22;1.00;;;0.75;;
47431;SDS011;33183;52.290;6.144;2022-09-03T18:39:18;1.73;;;1.17;;
47431;SDS011;33183;52.290;6.144;2022-09-03T18:45:10;1.48;;;1.30;;
47431;SDS011;33183;52.290;6.144;2022-09-03T18:51:05;2.13;;;1.10;;
47431;SDS011;33183;52.290;6.144;2022-09-03T18:57:00;1.63;;;0.95;;
47431;SDS011;33183;52.290;6.144;2022-09-03T18:59:59;1.33;;;0.98;;
47431;SDS011;33183;52.290;6.144;2022-09-03T19:08:52;1.80;;;1.30;;
47431;SDS011;33183;52.290;6.144;2022-09-03T19:11:50;1.63;;;1.08;;
47431;SDS011;33183;52.290;6.144;2022-09-03T19:20:34;1.77;;;1.20;;
47431;SDS011;33183;52.290;6.144;2022-09-03T19:23:19;1.80;;;0.80;;
47431;SDS011;33183;52.290;6.144;2022-09-03T19:26:17;2.50;;;1.20;;
47431;SDS011;33183;52.290;6.144;2022-09-03T19:29:08;2.20;;;1.10;;
47431;SDS011;33183;52.290;6.144;2022-09-03T19:32:00;1.88;;;1.38;;
47431;SDS011;33183;52.290;6.144;2022-09-03T19:35:09;2.22;;;1.20;;
47431;SDS011;33183;52.290;6.144;2022-09-03T19:38:03;1.90;;;1.25;;
47431;SDS011;33183;52.290;6.144;2022-09-03T19:53:16;2.97;;;1.30;;
47431;SDS011;33183;52.290;6.144;2022-09-03T19:56:02;1.77;;;1.25;;
47431;SDS011;33183;52.290;6.144;2022-09-03T19:58:54;2.42;;;1.33;;
47431;SDS011;33183;52.290;6.144;2022-09-03T20:01:39;2.55;;;1.40;;
47431;SDS011;33183;52.290;6.144;2022-09-03T20:04:31;2.20;;;1.20;;
47431;SDS011;33183;52.290;6.144;2022-09-03T20:07:17;1.35;;;0.98;;
47431;SDS011;33183;52.290;6.144;2022-09-03T20:10:03;1.20;;;0.90;;
47431;SDS011;33183;52.290;6.144;2022-09-03T20:12:50;1.30;;;0.70;;
47431;SDS011;33183;52.290;6.144;2022-09-03T20:15:21;2.03;;;0.80;;
47431;SDS011;33183;52.290;6.144;2022-09-03T20:20:54;0.65;;;0.63;;
47431;SDS011;33183;52.290;6.144;2022-09-03T20:34:20;1.15;;;0.90;;
47431;SDS011;33183;52.290;6.144;2022-09-03T20:39:41;0.90;;;0.82;;
47431;SDS011;33183;52.290;6.144;2022-09-03T20:42:50;3.40;;;1.23;;
47431;SDS011;33183;52.290;6.144;2022-09-03T20:48:29;1.45;;;0.70;;
47431;SDS011;33183;52.290;6.144;2022-09-03T20:51:11;1.33;;;0.90;;
47431;SDS011;33183;52.290;6.144;2022-09-03T20:56:18;1.67;;;1.00;;